Time;durP1;ratioP1;P1;durP2;ratioP2;P2;SDS_P1;SDS_P2;PMS_P1;PMS_P2;Temp;Humidity;BMP_temperature;BMP_pressure;BME280_temperature;BME280_humidity;BME280_pressure;Samples;Min_cycle;Max_cycle;Signal;HPM_P1;HPM_P2
2021/07/24 00:01:09;;;;;;;22.20;14.57;;;18.70;97.30;;;;;;5037918;28;20476;-80
2021/07/24 00:03:36;;;;;;;20.03;13.90;;;18.70;97.30;;;;;;5037194;28;20426;-80
2021/07/24 00:06:02;;;;;;;23.93;16.13;;;18.70;97.30;;;;;;5035607;28;20435;-80
2021/07/24 00:08:28;;;;;;;24.00;16.67;;;18.70;97.30;;;;;;5034911;28;21006;-80
2021/07/24 00:10:53;;;;;;;23.23;15.00;;;18.60;97.30;;;;;;5035713;28;20435;-79
2021/07/24 00:13:19;;;;;;;27.17;16.30;;;18.60;97.30;;;;;;5035774;28;20183;-80
2021/07/24 00:15:45;;;;;;;28.10;15.60;;;18.60;97.30;;;;;;5035089;28;20695;-81
2021/07/24 00:18:11;;;;;;;29.97;16.40;;;18.60;97.30;;;;;;5034490;28;20433;-80
2021/07/24 00:20:36;;;;;;;21.83;15.40;;;18.60;97.30;;;;;;5035268;28;20258;-81
2021/07/24 00:23:03;;;;;;;26.10;16.20;;;18.50;97.30;;;;;;5035045;28;20176;-80
2021/07/24 00:25:29;;;;;;;21.97;15.13;;;18.50;97.30;;;;;;5035747;28;20211;-80
2021/07/24 00:27:55;;;;;;;25.63;14.80;;;18.50;97.30;;;;;;5035667;28;20447;-80
2021/07/24 00:30:21;;;;;;;23.10;15.57;;;18.40;97.30;;;;;;5035395;28;20434;-80
2021/07/24 00:32:46;;;;;;;26.23;16.07;;;18.40;97.30;;;;;;5035176;28;20439;-80
2021/07/24 00:35:12;;;;;;;26.73;16.67;;;18.40;97.30;;;;;;5036372;28;20187;-80
2021/07/24 00:37:38;;;;;;;24.67;15.93;;;18.30;97.30;;;;;;5035346;28;20176;-80
2021/07/24 00:40:04;;;;;;;24.77;16.97;;;18.30;97.30;;;;;;5036558;28;20216;-80
2021/07/24 00:42:32;;;;;;;27.20;16.77;;;18.30;97.30;;;;;;5036045;28;20677;-80
2021/07/24 00:45:02;;;;;;;26.57;16.83;;;18.20;97.30;;;;;;5036235;28;20423;-80
2021/07/24 00:47:38;;;;;;;23.33;15.73;;;18.20;97.30;;;;;;5035163;28;20450;-80
2021/07/24 00:50:06;;;;;;;25.77;17.53;;;18.20;97.30;;;;;;5018585;28;20515;-80
2021/07/24 00:52:32;;;;;;;24.03;16.17;;;18.20;97.30;;;;;;5014279;28;20984;-81
2021/07/24 00:54:58;;;;;;;27.47;16.60;;;18.20;97.30;;;;;;5018528;28;20454;-81
2021/07/24 00:57:23;;;;;;;23.73;16.07;;;18.20;97.30;;;;;;5035155;28;20612;-81
2021/07/24 00:59:49;;;;;;;26.87;16.60;;;18.10;97.30;;;;;;5033635;28;20419;-81
2021/07/24 01:02:14;;;;;;;25.00;16.53;;;18.10;97.30;;;;;;5033526;28;20192;-81
2021/07/24 01:04:40;;;;;;;25.97;17.50;;;18.10;97.30;;;;;;5035140;28;20173;-81
2021/07/24 01:07:08;;;;;;;25.43;17.10;;;18.10;97.30;;;;;;5035897;28;20179;-81
2021/07/24 01:09:34;;;;;;;24.00;17.47;;;18.10;97.30;;;;;;5037574;28;21016;-81
2021/07/24 01:12:03;;;;;;;29.47;18.57;;;18.00;97.30;;;;;;5035828;28;20463;-81
2021/07/24 01:14:31;;;;;;;26.00;16.70;;;18.10;97.30;;;;;;5035698;28;20636;-81
2021/07/24 01:16:57;;;;;;;23.67;16.77;;;18.00;97.30;;;;;;5036047;28;20427;-81
2021/07/24 01:19:23;;;;;;;27.10;18.13;;;18.00;97.30;;;;;;5036196;28;20445;-81
2021/07/24 01:21:49;;;;;;;26.43;18.03;;;18.00;97.30;;;;;;5035217;28;20212;-81
2021/07/24 01:24:15;;;;;;;28.73;17.23;;;18.00;97.30;;;;;;5035085;28;20786;-81
2021/07/24 01:26:44;;;;;;;28.23;18.67;;;18.00;97.30;;;;;;5034790;28;20229;-81
2021/07/24 01:29:17;;;;;;;28.40;17.13;;;17.90;97.30;;;;;;5035239;28;20196;-81
2021/07/24 01:31:43;;;;;;;31.70;18.07;;;17.90;97.30;;;;;;5035671;28;20786;-81
2021/07/24 01:34:09;;;;;;;24.67;16.50;;;17.90;97.30;;;;;;5035612;28;20427;-81
2021/07/24 01:36:35;;;;;;;27.77;17.60;;;17.90;97.30;;;;;;5035271;28;20431;-81
2021/07/24 01:39:01;;;;;;;25.47;17.20;;;17.90;97.30;;;;;;5035070;28;20419;-81
2021/07/24 01:41:26;;;;;;;27.80;17.93;;;17.90;97.30;;;;;;5036022;28;20575;-81
2021/07/24 01:43:52;;;;;;;25.40;16.80;;;17.80;97.30;;;;;;5036543;28;20180;-81
2021/07/24 01:46:18;;;;;;;25.07;15.90;;;17.80;97.30;;;;;;5036082;28;20264;-81
2021/07/24 01:48:51;;;;;;;33.90;18.50;;;17.80;97.30;;;;;;5034808;28;20363;-81
2021/07/24 01:54:04;;;;;;;26.47;17.20;;;17.70;97.30;;;;;;5036118;28;20888;-80
2021/07/24 01:56:33;;;;;;;25.40;17.20;;;17.70;97.30;;;;;;5034619;28;20533;-81
2021/07/24 01:58:58;;;;;;;25.87;17.40;;;17.70;97.30;;;;;;5034619;28;20427;-81
2021/07/24 02:01:26;;;;;;;22.97;16.03;;;17.70;97.30;;;;;;5034998;28;20436;-80
2021/07/24 02:03:56;;;;;;;30.23;16.90;;;17.70;97.30;;;;;;5035433;28;20227;-81
2021/07/24 02:06:21;;;;;;;28.93;17.30;;;17.60;97.30;;;;;;5035309;28;20411;-81
2021/07/24 02:08:49;;;;;;;27.07;16.20;;;17.60;97.30;;;;;;5035086;28;20825;-81
2021/07/24 02:11:16;;;;;;;26.30;16.77;;;17.60;97.30;;;;;;5033349;28;21009;-81
2021/07/24 02:13:42;;;;;;;27.17;16.67;;;17.50;97.30;;;;;;5014761;28;20794;-81
2021/07/24 02:16:07;;;;;;;24.87;16.17;;;17.50;97.30;;;;;;5022846;28;20427;-81
2021/07/24 02:18:34;;;;;;;28.70;17.37;;;17.50;97.30;;;;;;5034675;28;20419;-81
2021/07/24 02:21:01;;;;;;;25.50;17.00;;;17.50;97.30;;;;;;5033899;28;20693;-80
2021/07/24 02:23:27;;;;;;;26.47;16.53;;;17.50;97.30;;;;;;5034195;28;20434;-81
2021/07/24 02:25:52;;;;;;;26.37;16.50;;;17.40;97.30;;;;;;5034296;28;20436;-81
2021/07/24 02:28:18;;;;;;;23.00;16.43;;;17.40;97.30;;;;;;5033974;28;20669;-81
2021/07/24 02:30:44;;;;;;;26.20;16.57;;;17.40;97.30;;;;;;5034452;28;20176;-81
2021/07/24 02:33:10;;;;;;;24.90;17.27;;;17.30;97.30;;;;;;5034525;28;20195;-81
2021/07/24 02:35:35;;;;;;;22.90;16.60;;;17.30;97.30;;;;;;5033502;28;20181;-81
2021/07/24 02:38:01;;;;;;;22.60;15.20;;;17.30;97.30;;;;;;5034267;28;20415;-80
2021/07/24 02:40:27;;;;;;;23.97;16.73;;;17.30;97.30;;;;;;5033883;28;20740;-80
2021/07/24 02:42:54;;;;;;;23.23;15.93;;;17.20;97.30;;;;;;5023090;28;20432;-81
2021/07/24 02:45:20;;;;;;;24.00;17.27;;;17.20;97.30;;;;;;5014666;28;20177;-81
2021/07/24 02:47:46;;;;;;;25.23;16.83;;;17.20;97.30;;;;;;5034172;28;21110;-81
2021/07/24 02:50:12;;;;;;;25.90;15.80;;;17.10;97.30;;;;;;5033680;28;20177;-81
2021/07/24 02:52:38;;;;;;;25.53;15.97;;;17.10;97.30;;;;;;5035487;28;20220;-81
2021/07/24 02:55:05;;;;;;;27.90;16.87;;;17.00;97.30;;;;;;5034196;28;20490;-81
2021/07/24 02:57:30;;;;;;;29.97;17.00;;;17.00;97.30;;;;;;5033110;28;20427;-81
2021/07/24 02:59:56;;;;;;;24.43;16.20;;;17.00;97.30;;;;;;5034124;28;20800;-81
2021/07/24 03:02:21;;;;;;;26.10;15.83;;;17.00;97.30;;;;;;5033097;28;20203;-81
2021/07/24 03:04:47;;;;;;;26.97;15.50;;;17.00;97.30;;;;;;5032862;28;20652;-81
2021/07/24 03:07:12;;;;;;;23.97;15.23;;;16.90;97.30;;;;;;5031396;28;20208;-81
2021/07/24 03:09:38;;;;;;;24.97;15.67;;;16.90;97.30;;;;;;5015560;28;20204;-81
2021/07/24 03:12:04;;;;;;;25.57;15.97;;;16.90;97.30;;;;;;5014110;28;20252;-81
2021/07/24 03:14:30;;;;;;;23.50;15.67;;;16.80;97.30;;;;;;5014220;28;20612;-81
2021/07/24 03:16:55;;;;;;;23.33;15.90;;;16.80;97.30;;;;;;5024898;28;20458;-81
2021/07/24 03:19:21;;;;;;;23.13;17.43;;;16.80;97.30;;;;;;5033453;28;20686;-81
2021/07/24 03:21:47;;;;;;;26.43;16.17;;;16.80;97.30;;;;;;5033750;28;20283;-81
2021/07/24 03:24:12;;;;;;;26.10;16.37;;;16.80;97.30;;;;;;5037337;28;20199;-81
2021/07/24 03:26:41;;;;;;;28.47;16.90;;;16.70;97.30;;;;;;5037252;28;20231;-81
2021/07/24 03:29:07;;;;;;;24.80;16.23;;;16.70;97.30;;;;;;5037612;28;20212;-81
2021/07/24 03:31:33;;;;;;;27.10;16.20;;;16.70;97.30;;;;;;5038017;28;20521;-81
2021/07/24 03:33:59;;;;;;;24.97;16.80;;;16.60;97.30;;;;;;5038230;28;20541;-81
2021/07/24 03:36:24;;;;;;;26.20;17.00;;;16.60;97.30;;;;;;5036847;28;20188;-81
2021/07/24 03:38:50;;;;;;;24.70;17.07;;;16.60;97.30;;;;;;5036358;28;20187;-81
2021/07/24 03:41:15;;;;;;;24.17;15.83;;;16.60;97.30;;;;;;5038362;28;20227;-81
2021/07/24 03:43:42;;;;;;;25.80;16.87;;;16.50;97.30;;;;;;5038173;28;20772;-81
2021/07/24 03:46:19;;;;;;;25.53;17.00;;;16.50;97.30;;;;;;5037473;28;20642;-81
2021/07/24 03:48:45;;;;;;;22.00;15.00;;;16.50;97.30;;;;;;5037365;28;20473;-81
2021/07/24 03:51:13;;;;;;;24.70;16.97;;;16.50;97.30;;;;;;5037801;28;20438;-81
2021/07/24 03:53:40;;;;;;;30.57;16.73;;;16.50;97.30;;;;;;5037140;28;20590;-81
2021/07/24 03:56:06;;;;;;;31.30;16.63;;;16.50;97.30;;;;;;5036842;28;20407;-81
2021/07/24 03:58:31;;;;;;;30.60;17.77;;;16.50;97.30;;;;;;5025919;28;20450;-81
2021/07/24 04:00:59;;;;;;;25.03;16.47;;;16.40;97.30;;;;;;5017760;28;20443;-81
2021/07/24 04:03:25;;;;;;;26.13;16.17;;;16.40;97.30;;;;;;5028552;28;20238;-81
2021/07/24 04:05:52;;;;;;;28.50;17.80;;;16.40;97.30;;;;;;5037703;28;20415;-81
2021/07/24 04:08:18;;;;;;;26.83;16.80;;;16.30;97.30;;;;;;5037007;28;20318;-81
2021/07/24 04:10:44;;;;;;;25.70;16.40;;;16.30;97.30;;;;;;5037040;28;20439;-81
2021/07/24 04:13:11;;;;;;;25.83;15.70;;;16.30;97.30;;;;;;5036811;28;20236;-81
2021/07/24 04:15:37;;;;;;;25.07;16.43;;;16.30;97.30;;;;;;5036639;28;20514;-81
2021/07/24 04:18:04;;;;;;;28.40;15.97;;;16.30;97.30;;;;;;5038546;28;20561;-81
2021/07/24 04:20:30;;;;;;;23.67;15.37;;;16.30;97.30;;;;;;5037041;28;20419;-81
2021/07/24 04:22:56;;;;;;;25.37;16.00;;;16.30;97.30;;;;;;5037221;28;20451;-81
2021/07/24 04:25:21;;;;;;;23.80;14.93;;;16.30;97.30;;;;;;5036371;28;20266;-81
2021/07/24 04:27:48;;;;;;;24.87;16.00;;;16.30;97.30;;;;;;5036467;28;20217;-81
2021/07/24 04:30:13;;;;;;;27.43;16.30;;;16.30;97.30;;;;;;5036590;28;20590;-81
2021/07/24 04:32:39;;;;;;;25.17;15.00;;;16.30;97.30;;;;;;5036130;28;20439;-81
2021/07/24 04:35:05;;;;;;;21.50;14.10;;;16.40;97.30;;;;;;5037092;28;20200;-81
2021/07/24 04:37:30;;;;;;;25.80;15.33;;;16.40;97.30;;;;;;5036418;28;20199;-81
2021/07/24 04:39:56;;;;;;;22.70;15.73;;;16.40;97.30;;;;;;5036028;28;20867;-80
2021/07/24 04:42:22;;;;;;;27.47;17.13;;;16.40;97.30;;;;;;5037044;28;20279;-81
2021/07/24 04:44:47;;;;;;;20.60;14.17;;;16.40;97.30;;;;;;5035782;28;20180;-81
2021/07/24 04:47:13;;;;;;;21.40;15.53;;;16.40;97.30;;;;;;5036607;28;20423;-81
2021/07/24 04:49:50;;;;;;;25.90;15.40;;;16.40;97.30;;;;;;5036901;28;20208;-81
2021/07/24 04:52:16;;;;;;;24.33;15.27;;;16.50;97.30;;;;;;5036451;28;20446;-81
2021/07/24 04:54:44;;;;;;;26.53;14.90;;;16.50;97.30;;;;;;5036385;28;20466;-81
2021/07/24 04:57:10;;;;;;;24.07;15.60;;;16.50;97.30;;;;;;5035067;28;20426;-81
2021/07/24 04:59:37;;;;;;;21.90;15.00;;;16.50;97.30;;;;;;5030593;28;20435;-81
2021/07/24 05:02:03;;;;;;;21.80;14.70;;;16.60;97.30;;;;;;5036809;28;20431;-81
2021/07/24 05:04:29;;;;;;;24.63;14.27;;;16.60;97.30;;;;;;5034999;28;20458;-80
2021/07/24 05:06:55;;;;;;;20.90;13.47;;;16.60;97.30;;;;;;5036072;28;20427;-81
2021/07/24 05:09:21;;;;;;;25.43;16.13;;;16.70;97.30;;;;;;5036634;28;20201;-81
2021/07/24 05:11:46;;;;;;;21.40;14.10;;;16.80;97.30;;;;;;5036067;28;20431;-81
2021/07/24 05:14:12;;;;;;;25.20;16.27;;;16.80;97.30;;;;;;5025659;28;20176;-81
2021/07/24 05:16:37;;;;;;;25.70;15.50;;;16.80;97.30;;;;;;5033747;28;20181;-81
2021/07/24 05:19:06;;;;;;;33.20;17.87;;;16.90;97.30;;;;;;5027201;28;20188;-80
2021/07/24 05:21:31;;;;;;;28.17;17.73;;;16.90;97.30;;;;;;5021913;28;20201;-81
2021/07/24 05:23:57;;;;;;;33.60;20.17;;;17.00;97.30;;;;;;5030030;28;20437;-81
2021/07/24 05:26:22;;;;;;;31.90;19.73;;;17.00;97.30;;;;;;5028967;28;20189;-81
2021/07/24 05:28:48;;;;;;;33.80;19.60;;;17.10;97.30;;;;;;5032995;28;20196;-81
2021/07/24 05:31:18;;;;;;;34.40;21.17;;;17.10;97.30;;;;;;5035513;28;20266;-81
2021/07/24 05:33:45;;;;;;;29.67;19.20;;;17.20;97.30;;;;;;5024859;28;20181;-80
2021/07/24 05:36:11;;;;;;;35.13;21.70;;;17.20;97.30;;;;;;5027081;28;20448;-81
2021/07/24 05:38:40;;;;;;;30.80;19.57;;;17.30;97.30;;;;;;5023254;28;20461;-81
2021/07/24 05:41:05;;;;;;;29.90;18.97;;;17.40;97.30;;;;;;5016902;28;20892;-81
2021/07/24 05:43:31;;;;;;;30.67;19.37;;;17.40;97.30;;;;;;5026807;28;20428;-81
2021/07/24 05:45:59;;;;;;;43.70;20.80;;;17.40;97.30;;;;;;5027531;28;20174;-81
2021/07/24 05:48:25;;;;;;;34.10;20.20;;;17.50;97.30;;;;;;5030145;28;20613;-82
2021/07/24 05:50:50;;;;;;;37.10;21.40;;;17.50;97.30;;;;;;5029800;28;20494;-82
2021/07/24 05:53:17;;;;;;;33.37;20.20;;;17.60;97.30;;;;;;5015883;28;20553;-81
2021/07/24 05:58:18;;;;;;;35.07;19.40;;;17.70;97.30;;;;;;5039794;23;20721;-84
2021/07/24 06:00:43;;;;;;;31.40;19.60;;;17.70;97.30;;;;;;5013058;28;20431;-85
2021/07/24 06:03:09;;;;;;;36.53;20.73;;;17.70;97.30;;;;;;5010576;28;20227;-84
2021/07/24 06:05:34;;;;;;;36.37;21.80;;;17.80;97.30;;;;;;5003592;28;20264;-84
2021/07/24 06:08:00;;;;;;;34.17;21.27;;;17.80;97.30;;;;;;4992527;28;20205;-85
2021/07/24 06:10:25;;;;;;;45.77;22.83;;;17.90;97.30;;;;;;4992688;28;20181;-84
2021/07/24 06:12:51;;;;;;;37.60;22.07;;;18.00;97.30;;;;;;5004438;28;20207;-84
2021/07/24 06:15:17;;;;;;;37.73;22.70;;;18.00;97.30;;;;;;5013595;28;20177;-84
2021/07/24 06:17:42;;;;;;;37.80;23.10;;;18.10;97.30;;;;;;5013638;28;20235;-84
2021/07/24 06:20:08;;;;;;;32.57;22.13;;;18.10;97.30;;;;;;5002195;28;20169;-84
2021/07/24 06:22:33;;;;;;;37.57;21.97;;;18.10;97.30;;;;;;5003174;28;20205;-84
2021/07/24 06:24:59;;;;;;;36.87;22.40;;;18.20;97.30;;;;;;5005220;28;20437;-84
2021/07/24 06:27:25;;;;;;;35.23;21.73;;;18.30;97.30;;;;;;5005698;28;20265;-84
2021/07/24 06:29:50;;;;;;;38.00;23.20;;;18.40;97.30;;;;;;5002386;28;20240;-84
2021/07/24 06:32:16;;;;;;;41.67;23.33;;;18.40;97.30;;;;;;5005905;28;20547;-84
2021/07/24 06:34:41;;;;;;;40.00;22.90;;;18.40;97.30;;;;;;5002310;28;20197;-84
2021/07/24 06:37:07;;;;;;;33.07;20.80;;;18.50;97.30;;;;;;5005457;28;20176;-84
2021/07/24 06:39:32;;;;;;;35.80;22.40;;;18.60;97.30;;;;;;5001245;28;20618;-84
2021/07/24 06:41:58;;;;;;;37.60;22.17;;;18.60;97.30;;;;;;5006909;28;20205;-84
2021/07/24 06:44:23;;;;;;;33.03;21.63;;;18.70;97.30;;;;;;5001128;28;20182;-84
2021/07/24 06:46:49;;;;;;;36.10;22.80;;;18.80;97.30;;;;;;5005719;28;20259;-85
2021/07/24 06:49:15;;;;;;;37.10;22.93;;;18.80;97.30;;;;;;5001633;28;20194;-85
2021/07/24 06:51:40;;;;;;;39.17;23.30;;;18.90;97.30;;;;;;5002119;28;20190;-84
2021/07/24 06:54:06;;;;;;;42.60;23.90;;;19.00;97.30;;;;;;5004194;28;20173;-85
2021/07/24 06:56:33;;;;;;;36.10;22.80;;;19.10;97.30;;;;;;5009707;28;20640;-85
2021/07/24 06:58:58;;;;;;;34.43;22.00;;;19.10;97.30;;;;;;5001744;28;20756;-86
2021/07/24 07:01:24;;;;;;;39.17;23.53;;;19.30;97.30;;;;;;5002764;28;20522;-84
2021/07/24 07:03:49;;;;;;;39.47;23.50;;;19.40;97.30;;;;;;5005493;28;20212;-84
2021/07/24 07:06:15;;;;;;;38.00;21.63;;;19.50;97.30;;;;;;5001773;28;20205;-84
2021/07/24 07:08:41;;;;;;;36.13;22.37;;;19.60;97.30;;;;;;5005165;28;20209;-84
2021/07/24 07:11:07;;;;;;;33.73;20.17;;;19.70;97.30;;;;;;4999479;28;20770;-84
2021/07/24 07:13:33;;;;;;;40.73;23.63;;;19.70;97.30;;;;;;5005116;28;20184;-84
2021/07/24 07:16:04;;;;;;;38.23;21.10;;;19.80;97.30;;;;;;5004532;28;20413;-85
2021/07/24 07:18:29;;;;;;;34.83;21.17;;;19.90;97.30;;;;;;5004085;28;20441;-85
2021/07/24 07:20:55;;;;;;;36.53;22.20;;;20.00;97.30;;;;;;5003990;28;20944;-85
2021/07/24 07:23:20;;;;;;;35.63;20.33;;;20.00;97.30;;;;;;5001551;28;20180;-85
2021/07/24 07:25:46;;;;;;;32.60;19.80;;;20.10;97.30;;;;;;4997090;28;20189;-85
2021/07/24 07:28:12;;;;;;;32.83;19.90;;;20.20;97.30;;;;;;5002669;28;20420;-85
2021/07/24 07:30:37;;;;;;;36.83;22.30;;;20.30;97.30;;;;;;5011064;28;20188;-84
2021/07/24 07:33:03;;;;;;;34.53;20.57;;;20.40;97.30;;;;;;5012676;28;20181;-85
2021/07/24 07:35:29;;;;;;;41.23;21.93;;;20.50;97.30;;;;;;5010910;28;20235;-85
2021/07/24 07:37:56;;;;;;;35.03;20.70;;;20.60;97.30;;;;;;5011501;28;20213;-85
2021/07/24 07:40:22;;;;;;;35.83;20.03;;;20.70;97.30;;;;;;5011476;28;20173;-84
2021/07/24 07:42:48;;;;;;;33.37;21.50;;;20.80;97.30;;;;;;5009702;28;20447;-84
2021/07/24 07:45:13;;;;;;;36.07;20.63;;;20.90;97.30;;;;;;5011126;28;20471;-85
2021/07/24 07:47:39;;;;;;;31.07;19.23;;;21.00;97.30;;;;;;5010217;28;20169;-85
2021/07/24 07:50:06;;;;;;;38.20;19.80;;;21.10;97.30;;;;;;5010763;28;20526;-85
2021/07/24 07:52:32;;;;;;;27.90;18.90;;;21.20;97.30;;;;;;5010159;28;20674;-84
2021/07/24 07:54:58;;;;;;;34.43;19.27;;;21.30;97.30;;;;;;5010296;28;20420;-85
2021/07/24 07:57:26;;;;;;;33.57;19.23;;;21.40;97.30;;;;;;5011415;28;20217;-85
2021/07/24 07:59:52;;;;;;;30.93;19.37;;;21.50;97.30;;;;;;5011524;28;20978;-85
2021/07/24 08:02:18;;;;;;;34.43;20.60;;;21.50;97.30;;;;;;5010809;28;20519;-84
2021/07/24 08:04:44;;;;;;;32.07;20.47;;;21.60;97.30;;;;;;5009118;28;20185;-85
2021/07/24 08:07:10;;;;;;;31.30;19.33;;;21.60;97.30;;;;;;5009609;28;20704;-84
2021/07/24 08:09:35;;;;;;;30.40;18.70;;;21.70;97.30;;;;;;5010902;28;20556;-84
2021/07/24 08:12:01;;;;;;;30.27;19.83;;;21.80;97.30;;;;;;5014986;28;20205;-85
2021/07/24 08:14:26;;;;;;;30.27;18.87;;;22.00;97.30;;;;;;5014683;28;20555;-85
2021/07/24 08:16:52;;;;;;;30.50;18.67;;;22.10;97.30;;;;;;5014622;28;20713;-85
2021/07/24 08:19:17;;;;;;;37.23;20.83;;;22.20;97.30;;;;;;5014040;28;20177;-85
2021/07/24 08:21:43;;;;;;;29.23;18.40;;;22.30;97.30;;;;;;5015722;28;20228;-84
2021/07/24 08:24:08;;;;;;;28.93;19.20;;;22.40;97.30;;;;;;5015667;28;20185;-84
2021/07/24 08:26:34;;;;;;;28.57;19.30;;;22.50;97.30;;;;;;5014611;28;20177;-84
2021/07/24 08:28:59;;;;;;;26.30;18.00;;;22.60;97.30;;;;;;5014217;28;20601;-84
2021/07/24 08:31:26;;;;;;;28.00;18.30;;;22.70;97.30;;;;;;5014502;28;20683;-84
2021/07/24 08:33:51;;;;;;;29.57;17.97;;;22.70;97.30;;;;;;5013563;28;20592;-84
2021/07/24 08:36:17;;;;;;;31.37;18.60;;;22.80;97.30;;;;;;5013957;28;20423;-85
2021/07/24 08:38:42;;;;;;;31.63;19.40;;;22.80;97.30;;;;;;5014546;28;20169;-85
2021/07/24 08:41:14;;;;;;;25.60;17.47;;;22.90;97.30;;;;;;5013912;28;20244;-84
2021/07/24 08:43:40;;;;;;;26.10;16.20;;;23.00;97.30;;;;;;5009980;28;20188;-84
2021/07/24 08:46:05;;;;;;;31.77;18.70;;;23.10;97.30;;;;;;5013427;28;20412;-84
2021/07/24 08:48:31;;;;;;;29.47;17.93;;;23.20;97.30;;;;;;5012888;28;20203;-84
2021/07/24 08:50:59;;;;;;;29.77;18.30;;;23.30;97.30;;;;;;5013578;28;20197;-84
2021/07/24 08:53:26;;;;;;;33.27;18.70;;;23.40;95.40;;;;;;5013526;28;20180;-84
2021/07/24 08:56:02;;;;;;;28.93;17.77;;;23.50;95.10;;;;;;5013698;28;20438;-84
2021/07/24 08:58:29;;;;;;;41.83;18.50;;;23.50;95.90;;;;;;5013510;28;20510;-84
2021/07/24 09:00:56;;;;;;;29.53;18.87;;;23.70;95.50;;;;;;5014581;28;20424;-84
2021/07/24 09:03:24;;;;;;;25.07;17.27;;;23.80;96.30;;;;;;5013816;28;20759;-84
2021/07/24 09:05:50;;;;;;;27.87;17.90;;;23.90;97.30;;;;;;5013468;28;20518;-84
2021/07/24 09:08:18;;;;;;;27.07;17.77;;;24.00;97.30;;;;;;5013403;28;20463;-84
2021/07/24 09:10:47;;;;;;;28.60;17.27;;;24.10;97.30;;;;;;5013768;28;20522;-84
2021/07/24 09:13:13;;;;;;;34.13;17.80;;;24.20;97.30;;;;;;5013694;28;20428;-84
2021/07/24 09:15:39;;;;;;;25.83;16.70;;;24.30;96.30;;;;;;5013102;28;20404;-84
2021/07/24 09:18:04;;;;;;;28.60;17.70;;;24.30;94.20;;;;;;5002745;28;20985;-84
2021/07/24 09:20:30;;;;;;;24.97;15.70;;;24.40;94.20;;;;;;4993136;28;20536;-84
2021/07/24 09:22:57;;;;;;;23.63;15.87;;;24.50;93.50;;;;;;4993478;28;20181;-84
2021/07/24 09:25:23;;;;;;;26.40;16.63;;;24.50;92.50;;;;;;4993689;28;20181;-84
2021/07/24 09:27:50;;;;;;;24.67;16.20;;;24.60;93.80;;;;;;4995921;28;20484;-84
2021/07/24 09:30:27;;;;;;;22.80;15.27;;;24.70;93.40;;;;;;4993843;28;20416;-84
2021/07/24 09:33:15;;;;;;;23.47;14.40;;;24.80;93.20;;;;;;4992935;28;20427;-84
2021/07/24 09:35:46;;;;;;;21.00;14.57;;;24.80;93.00;;;;;;4993465;28;20414;-84
2021/07/24 09:38:31;;;;;;;22.77;14.07;;;24.90;92.20;;;;;;5001477;28;20786;-84
2021/07/24 09:41:02;;;;;;;22.47;14.07;;;25.00;92.10;;;;;;5013037;28;20451;-84
2021/07/24 09:43:41;;;;;;;24.13;16.50;;;25.10;93.90;;;;;;5013508;28;20415;-84
2021/07/24 09:46:14;;;;;;;22.03;15.57;;;25.20;94.20;;;;;;5011763;28;20478;-84
2021/07/24 09:48:48;;;;;;;25.10;15.20;;;25.30;93.10;;;;;;5012599;28;21016;-84
2021/07/24 09:51:15;;;;;;;22.90;15.03;;;25.40;92.70;;;;;;5013103;28;20440;-85
2021/07/24 09:53:42;;;;;;;20.30;14.50;;;25.50;93.20;;;;;;5012740;28;20508;-84
2021/07/24 09:56:15;;;;;;;22.20;14.33;;;25.60;93.00;;;;;;5012834;28;20473;-85
2021/07/24 09:58:47;;;;;;;23.27;15.70;;;25.70;92.10;;;;;;5012647;28;20701;-85
2021/07/24 10:01:18;;;;;;;22.20;16.00;;;25.80;91.40;;;;;;5010344;28;20449;-85
2021/07/24 10:03:49;;;;;;;19.20;14.43;;;25.80;90.70;;;;;;4993384;28;20432;-84
2021/07/24 10:06:15;;;;;;;21.60;15.00;;;25.90;92.20;;;;;;5005937;28;20511;-85
2021/07/24 10:08:43;;;;;;;23.77;15.63;;;26.00;93.20;;;;;;5012969;28;20468;-85
2021/07/24 10:11:10;;;;;;;20.60;14.37;;;26.10;93.10;;;;;;5011943;28;20436;-85
2021/07/24 10:13:37;;;;;;;22.60;14.70;;;26.20;91.80;;;;;;5012659;28;20957;-85
2021/07/24 10:16:03;;;;;;;19.80;14.27;;;26.30;91.70;;;;;;5012091;28;20424;-84
2021/07/24 10:18:30;;;;;;;20.53;15.30;;;26.40;90.30;;;;;;5012626;28;20444;-85
2021/07/24 10:20:55;;;;;;;23.87;14.87;;;26.50;91.30;;;;;;5012514;28;20295;-85
2021/07/24 10:23:23;;;;;;;19.77;13.90;;;26.70;91.30;;;;;;5013551;28;20494;-85
2021/07/24 10:25:57;;;;;;;22.07;13.93;;;26.80;90.90;;;;;;5011977;28;20676;-84
2021/07/24 10:28:30;;;;;;;18.13;13.00;;;26.90;90.90;;;;;;5012200;28;20521;-85
2021/07/24 10:31:04;;;;;;;21.80;14.10;;;27.00;90.60;;;;;;5011248;28;20977;-85
2021/07/24 10:33:31;;;;;;;21.93;13.80;;;27.20;90.20;;;;;;5011667;28;20531;-85
2021/07/24 10:36:17;;;;;;;20.10;13.33;;;27.20;88.20;;;;;;5011262;28;20688;-85
2021/07/24 10:38:59;;;;;;;18.70;12.80;;;27.20;87.00;;;;;;5014011;28;20428;-85
2021/07/24 10:41:34;;;;;;;17.80;13.60;;;27.30;88.10;;;;;;5014159;28;20435;-85
2021/07/24 10:44:05;;;;;;;17.47;13.10;;;27.40;87.30;;;;;;5028157;28;21327;-85
2021/07/24 10:46:40;;;;;;;20.70;13.80;;;27.40;87.00;;;;;;5023557;28;20440;-85
2021/07/24 10:49:06;;;;;;;22.30;13.47;;;27.40;88.30;;;;;;5017226;28;20466;-85
2021/07/24 10:51:52;;;;;;;18.97;13.00;;;27.50;88.10;;;;;;5022473;28;20506;-85
2021/07/24 10:54:17;;;;;;;20.60;13.53;;;27.60;88.00;;;;;;5007903;28;20424;-85
2021/07/24 10:56:43;;;;;;;19.93;14.10;;;27.70;87.10;;;;;;5028322;28;20608;-85
2021/07/24 10:59:20;;;;;;;21.43;13.10;;;27.70;88.60;;;;;;5010947;28;20181;-85
2021/07/24 11:01:49;;;;;;;16.30;12.57;;;27.90;90.20;;;;;;5019241;28;20295;-85
2021/07/24 11:04:38;;;;;;;16.90;11.77;;;28.00;87.40;;;;;;5014282;28;20416;-85
2021/07/24 11:07:12;;;;;;;18.20;11.80;;;28.10;87.60;;;;;;5013164;28;20412;-85
2021/07/24 11:09:45;;;;;;;18.73;12.50;;;28.20;84.70;;;;;;4993840;28;20547;-85
2021/07/24 11:12:12;;;;;;;16.27;12.53;;;28.30;84.90;;;;;;5009768;28;20476;-85
2021/07/24 11:14:37;;;;;;;17.33;12.70;;;28.40;86.80;;;;;;5013041;28;20499;-85
2021/07/24 11:17:06;;;;;;;19.80;12.77;;;28.50;84.10;;;;;;5013196;28;20983;-85
2021/07/24 11:19:38;;;;;;;18.00;12.80;;;28.60;85.70;;;;;;5010353;28;20304;-85
2021/07/24 11:22:21;;;;;;;16.37;12.03;;;28.70;83.70;;;;;;5010018;28;20471;-85
2021/07/24 11:24:50;;;;;;;14.50;11.73;;;28.80;84.20;;;;;;5010857;28;20424;-84
2021/07/24 11:27:28;;;;;;;15.87;12.13;;;28.90;85.30;;;;;;5012201;28;20432;-85
2021/07/24 11:30:04;;;;;;;17.73;11.90;;;28.90;85.30;;;;;;5011212;28;20534;-85
2021/07/24 11:32:32;;;;;;;16.67;12.27;;;29.00;83.00;;;;;;5010944;28;20454;-85
2021/07/24 11:35:05;;;;;;;17.90;11.73;;;29.10;82.00;;;;;;5012457;28;20507;-85
2021/07/24 11:37:41;;;;;;;17.67;11.13;;;29.20;84.00;;;;;;5005885;28;20494;-85
2021/07/24 11:40:18;;;;;;;21.70;12.90;;;29.30;84.50;;;;;;5012260;28;20442;-85
2021/07/24 11:42:54;;;;;;;15.03;11.37;;;29.40;84.40;;;;;;5013490;28;20580;-85
2021/07/24 11:45:20;;;;;;;20.40;11.83;;;29.40;81.50;;;;;;5020066;28;20455;-86
2021/07/24 11:47:46;;;;;;;14.27;10.73;;;29.50;83.40;;;;;;5017744;28;20453;-86
2021/07/24 11:50:18;;;;;;;15.67;11.60;;;29.60;82.40;;;;;;5009750;28;20458;-85
2021/07/24 11:52:51;;;;;;;18.83;11.90;;;29.80;84.40;;;;;;5018775;28;20189;-86
2021/07/24 11:55:32;;;;;;;17.27;10.90;;;29.90;82.20;;;;;;5002108;28;20487;-86
2021/07/24 11:58:06;;;;;;;15.73;11.13;;;29.90;78.00;;;;;;5027489;23;20502;-85
2021/07/24 12:00:42;;;;;;;16.10;11.67;;;30.00;81.40;;;;;;5034174;28;20502;-85
2021/07/24 12:03:19;;;;;;;15.53;11.37;;;30.00;82.00;;;;;;5015779;28;20423;-85
2021/07/24 12:05:48;;;;;;;15.20;11.07;;;30.00;78.50;;;;;;5021143;28;20429;-85
2021/07/24 12:08:16;;;;;;;14.80;11.60;;;30.00;79.30;;;;;;5038356;28;20485;-85
2021/07/24 12:10:44;;;;;;;14.67;10.37;;;29.90;78.10;;;;;;5052231;28;20419;-86
2021/07/24 12:13:11;;;;;;;14.73;10.93;;;29.90;77.50;;;;;;5034801;28;20423;-85
2021/07/24 12:15:57;;;;;;;17.20;11.20;;;30.10;79.30;;;;;;5033122;28;20423;-85
2021/07/24 12:18:22;;;;;;;15.33;10.33;;;30.30;83.70;;;;;;5026228;28;20435;-85
2021/07/24 12:20:53;;;;;;;13.90;10.00;;;30.40;82.20;;;;;;5012966;28;20909;-86
2021/07/24 12:23:23;;;;;;;14.33;10.70;;;30.50;83.10;;;;;;5013989;28;20553;-85
2021/07/24 12:26:08;;;;;;;15.17;10.80;;;30.60;83.80;;;;;;5017491;28;20431;-86
2021/07/24 12:28:34;;;;;;;15.00;11.10;;;30.80;84.10;;;;;;5034687;28;20525;-85
2021/07/24 12:31:22;;;;;;;13.93;9.93;;;30.90;83.10;;;;;;5033690;28;20437;-85
2021/07/24 12:33:50;;;;;;;12.30;9.90;;;30.90;80.50;;;;;;5033754;28;20638;-85
2021/07/24 12:36:17;;;;;;;14.40;10.77;;;31.00;82.10;;;;;;5033730;28;20415;-85